Time;durP1;ratioP1;P1;durP2;ratioP2;P2;SDS_P1;SDS_P2;PMS_P1;PMS_P2;Temp;Humidity;BMP_temperature;BMP_pressure;BME280_temperature;BME280_humidity;BME280_pressure;Samples;Min_cycle;Max_cycle;Signal;HPM_P1;HPM_P2
2022/12/13 00:01:29;;;;;;;;;;;5.30;77.40;;;;;;5046272;28;82090;-38
2022/12/13 00:03:56;;;;;;;;;;;5.30;77.40;;;;;;5045046;28;83313;-38
2022/12/13 00:06:22;;;;;;;;;;;5.30;77.30;;;;;;5048548;28;82845;-38
2022/12/13 00:08:48;;;;;;;;;;;5.30;77.40;;;;;;5045861;28;82683;-38
2022/12/13 00:11:13;;;;;;;;;;;5.20;77.40;;;;;;5045876;28;82930;-38
2022/12/13 00:13:40;;;;;;;;;;;5.30;77.40;;;;;;5046027;28;82041;-38
2022/12/13 00:16:07;;;;;;;;;;;5.30;77.40;;;;;;5045864;28;82308;-38
2022/12/13 00:18:32;;;;;;;;;;;5.30;77.40;;;;;;5045097;28;85297;-38
2022/12/13 00:20:58;;;;;;;;;;;5.30;77.40;;;;;;5046236;28;81711;-38
2022/12/13 00:23:24;;;;;;;;;;;5.30;77.40;;;;;;5045859;28;81840;-38
2022/12/13 00:25:49;;;;;;;;;;;5.30;77.40;;;;;;5045704;28;83381;-38
2022/12/13 00:28:15;;;;;;;;;;;5.20;77.30;;;;;;5047877;28;82930;-38
2022/12/13 00:30:41;;;;;;;;;;;5.20;77.30;;;;;;5045674;28;83019;-37
2022/12/13 00:33:06;;;;;;;;;;;5.20;77.40;;;;;;5045591;28;82067;-38
2022/12/13 00:35:32;;;;;;;;;;;5.20;77.40;;;;;;5045778;28;82391;-38
2022/12/13 00:37:58;;;;;;;;;;;5.20;77.40;;;;;;5045481;28;83029;-38
2022/12/13 00:40:23;;;;;;;;;;;5.20;77.40;;;;;;5044752;27;82033;-38
2022/12/13 00:42:49;;;;;;;;;;;5.20;77.40;;;;;;5045661;28;82519;-38
2022/12/13 00:45:14;;;;;;;;;;;5.20;77.30;;;;;;5045931;28;82317;-38
2022/12/13 00:47:40;;;;;;;;;;;5.20;77.40;;;;;;5045559;28;82414;-38
2022/12/13 00:50:06;;;;;;;;;;;5.10;77.30;;;;;;5047961;28;82315;-38
2022/12/13 00:52:34;;;;;;;;;;;5.20;77.40;;;;;;5044983;28;83283;-38
2022/12/13 00:55:00;;;;;;;;;;;5.10;77.30;;;;;;5045463;28;83278;-38
2022/12/13 00:57:25;;;;;;;;;;;5.20;77.40;;;;;;5045160;28;82990;-38
2022/12/13 00:59:51;;;;;;;;;;;5.20;77.30;;;;;;5045416;28;82369;-38
2022/12/13 01:02:16;;;;;;;;;;;5.10;77.30;;;;;;5045034;28;83970;-38
2022/12/13 01:04:42;;;;;;;;;;;5.10;77.30;;;;;;5045284;28;83144;-37
2022/12/13 01:07:08;;;;;;;;;;;5.10;77.30;;;;;;5045243;28;82069;-38
2022/12/13 01:09:33;;;;;;;;;;;5.10;77.30;;;;;;5045703;28;81526;-38
2022/12/13 01:12:00;;;;;;;;;;;5.10;77.30;;;;;;5049210;28;81901;-38
2022/12/13 01:14:25;;;;;;;;;;;5.10;77.30;;;;;;5048557;28;81840;-38
2022/12/13 01:16:54;;;;;;;;;;;5.10;77.30;;;;;;5047652;28;83953;-38
2022/12/13 01:19:23;;;;;;;;;;;5.10;77.30;;;;;;5048445;28;82008;-38
2022/12/13 01:21:53;;;;;;;;;;;5.00;77.20;;;;;;5048403;28;82312;-38
2022/12/13 01:24:19;;;;;;;;;;;5.00;77.30;;;;;;5048543;28;82951;-37
2022/12/13 01:26:45;;;;;;;;;;;5.00;77.30;;;;;;5048286;28;82427;-38
2022/12/13 01:29:10;;;;;;;;;;;5.10;77.30;;;;;;5048273;28;83947;-38
2022/12/13 01:31:40;;;;;;;;;;;5.00;77.20;;;;;;5047936;28;83623;-38
2022/12/13 01:34:09;;;;;;;;;;;5.00;77.30;;;;;;5051164;28;81662;-38
2022/12/13 01:36:35;;;;;;;;;;;5.00;77.20;;;;;;5047737;28;84802;-38
2022/12/13 01:39:00;;;;;;;;;;;5.00;77.30;;;;;;5048143;28;82019;-38
2022/12/13 01:41:27;;;;;;;;;;;5.00;77.30;;;;;;5047440;28;82889;-38
2022/12/13 01:43:54;;;;;;;;;;;5.00;77.20;;;;;;5047809;28;84695;-38
2022/12/13 01:46:20;;;;;;;;;;;5.00;77.20;;;;;;5047574;28;82147;-38
2022/12/13 01:48:52;;;;;;;;;;;5.00;77.30;;;;;;5048072;27;82486;-38
2022/12/13 01:51:20;;;;;;;;;;;5.00;77.30;;;;;;5047981;28;82274;-38
2022/12/13 01:53:47;;;;;;;;;;;5.00;77.20;;;;;;5050831;28;82012;-38
2022/12/13 01:56:18;;;;;;;;;;;5.00;77.20;;;;;;5047913;28;83316;-38
2022/12/13 01:58:44;;;;;;;;;;;5.00;77.20;;;;;;5048389;27;81202;-38
2022/12/13 02:01:10;;;;;;;;;;;5.00;77.20;;;;;;5047570;27;83023;-38
2022/12/13 02:03:36;;;;;;;;;;;4.90;77.30;;;;;;5047422;27;83412;-38
2022/12/13 02:06:19;;;;;;;;;;;4.90;77.30;;;;;;5047278;28;82991;-38
2022/12/13 02:08:45;;;;;;;;;;;4.90;77.20;;;;;;5047574;28;83182;-38
2022/12/13 02:11:11;;;;;;;;;;;4.90;77.30;;;;;;5047600;28;82872;-38
2022/12/13 02:13:37;;;;;;;;;;;4.90;77.30;;;;;;5047421;28;82063;-38
2022/12/13 02:16:02;;;;;;;;;;;4.90;77.20;;;;;;5050204;28;81936;-38
2022/12/13 02:18:28;;;;;;;;;;;4.90;77.20;;;;;;5047683;28;82120;-38
2022/12/13 02:20:57;;;;;;;;;;;4.90;77.30;;;;;;5047442;28;82469;-38
2022/12/13 02:23:25;;;;;;;;;;;4.90;77.20;;;;;;5047710;27;82140;-38
2022/12/13 02:26:13;;;;;;;;;;;4.80;77.30;;;;;;5047674;28;82079;-38
2022/12/13 02:28:42;;;;;;;;;;;4.80;77.30;;;;;;5046282;28;82443;-38
2022/12/13 02:31:09;;;;;;;;;;;4.80;77.20;;;;;;5046837;28;84034;-38
2022/12/13 02:33:39;;;;;;;;;;;4.80;77.20;;;;;;5047185;28;82178;-38
2022/12/13 02:36:04;;;;;;;;;;;4.80;77.30;;;;;;5047163;28;82482;-38
2022/12/13 02:38:33;;;;;;;;;;;4.80;77.20;;;;;;5049327;28;84299;-38
2022/12/13 02:41:04;;;;;;;;;;;4.80;77.20;;;;;;5046720;28;83961;-38
2022/12/13 02:43:33;;;;;;;;;;;4.80;77.10;;;;;;5046952;28;82786;-38
2022/12/13 02:46:00;;;;;;;;;;;4.80;77.20;;;;;;5046723;28;82158;-38
2022/12/13 02:48:33;;;;;;;;;;;4.80;77.10;;;;;;5047455;28;82371;-38
2022/12/13 02:51:00;;;;;;;;;;;4.70;77.10;;;;;;5046683;28;84005;-38
2022/12/13 02:53:25;;;;;;;;;;;4.80;77.10;;;;;;5046645;28;82407;-38
2022/12/13 02:55:51;;;;;;;;;;;4.80;77.10;;;;;;5046498;28;83040;-38
2022/12/13 02:58:20;;;;;;;;;;;4.70;77.10;;;;;;5046821;28;83100;-38
2022/12/13 03:00:46;;;;;;;;;;;4.70;77.10;;;;;;5049525;28;81983;-38
2022/12/13 03:03:20;;;;;;;;;;;4.70;77.10;;;;;;5046749;28;83078;-38
2022/12/13 03:08:53;;;;;;;;;;;4.70;77.10;;;;;;5046934;28;81924;-38
2022/12/13 03:11:20;;;;;;;;;;;4.70;77.20;;;;;;5045648;28;82415;-38
2022/12/13 03:13:53;;;;;;;;;;;4.70;77.20;;;;;;5047117;28;81228;-38
2022/12/13 03:16:33;;;;;;;;;;;4.60;77.20;;;;;;5046325;27;81999;-38
2022/12/13 03:19:00;;;;;;;;;;;4.70;77.10;;;;;;5046490;28;83033;-38
2022/12/13 03:21:26;;;;;;;;;;;4.60;77.00;;;;;;5045960;28;83084;-38
2022/12/13 03:23:51;;;;;;;;;;;4.70;77.10;;;;;;5049373;28;83402;-38
2022/12/13 03:26:19;;;;;;;;;;;4.60;77.00;;;;;;5046188;28;81864;-38
2022/12/13 03:28:45;;;;;;;;;;;4.60;77.00;;;;;;5046248;28;82213;-38
2022/12/13 03:31:10;;;;;;;;;;;4.60;77.00;;;;;;5046303;28;83411;-38
2022/12/13 03:33:37;;;;;;;;;;;4.60;77.00;;;;;;5046282;28;82347;-38
2022/12/13 03:36:03;;;;;;;;;;;4.60;77.00;;;;;;5045670;28;82018;-38
2022/12/13 03:38:29;;;;;;;;;;;4.50;77.00;;;;;;5046617;28;84435;-38
2022/12/13 03:40:58;;;;;;;;;;;4.60;77.10;;;;;;5045890;28;81986;-38
2022/12/13 03:43:24;;;;;;;;;;;4.50;77.10;;;;;;5048672;28;82381;-38
2022/12/13 03:45:50;;;;;;;;;;;4.50;77.10;;;;;;5045486;28;82962;-38
2022/12/13 03:48:16;;;;;;;;;;;4.50;77.00;;;;;;5046176;28;83302;-38
2022/12/13 03:50:42;;;;;;;;;;;4.60;77.00;;;;;;5045884;28;83055;-38
2022/12/13 03:53:07;;;;;;;;;;;4.50;77.00;;;;;;5046053;28;82074;-38
2022/12/13 03:55:33;;;;;;;;;;;4.50;77.00;;;;;;5046472;28;82380;-38
2022/12/13 03:57:58;;;;;;;;;;;4.50;77.00;;;;;;5045870;28;82716;-38
2022/12/13 04:00:24;;;;;;;;;;;4.50;77.00;;;;;;5046175;28;82088;-38
2022/12/13 04:02:49;;;;;;;;;;;4.50;77.00;;;;;;5046583;28;82434;-38
2022/12/13 04:05:15;;;;;;;;;;;4.50;77.00;;;;;;5048293;28;84312;-38
2022/12/13 04:07:40;;;;;;;;;;;4.50;77.00;;;;;;5045835;28;82441;-38
2022/12/13 04:10:06;;;;;;;;;;;4.50;77.00;;;;;;5044974;28;84027;-38
2022/12/13 04:15:16;;;;;;;;;;;4.40;76.90;;;;;;5046102;28;81948;-38
2022/12/13 04:17:41;;;;;;;;;;;4.40;77.00;;;;;;5045571;28;83265;-38
2022/12/13 04:20:07;;;;;;;;;;;4.40;76.90;;;;;;5045788;28;82068;-38
2022/12/13 04:22:32;;;;;;;;;;;4.40;76.90;;;;;;5045426;28;82532;-38
2022/12/13 04:24:58;;;;;;;;;;;4.40;76.90;;;;;;5045703;28;83195;-38
2022/12/13 04:27:23;;;;;;;;;;;4.40;76.90;;;;;;5048656;27;81342;-38
2022/12/13 04:29:49;;;;;;;;;;;4.40;77.00;;;;;;5045496;28;83119;-38
2022/12/13 04:32:14;;;;;;;;;;;4.40;76.90;;;;;;5045746;28;82099;-38
2022/12/13 04:34:40;;;;;;;;;;;4.30;76.90;;;;;;5044930;28;82909;-38
2022/12/13 04:37:05;;;;;;;;;;;4.30;76.90;;;;;;5045612;28;83007;-38
2022/12/13 04:39:31;;;;;;;;;;;4.30;76.90;;;;;;5045237;28;82113;-38
2022/12/13 04:41:56;;;;;;;;;;;4.30;77.00;;;;;;5045728;28;82466;-38
2022/12/13 04:44:22;;;;;;;;;;;4.30;76.90;;;;;;5045345;28;83102;-38
2022/12/13 04:46:47;;;;;;;;;;;4.30;76.90;;;;;;5046594;27;82071;-38
2022/12/13 04:49:13;;;;;;;;;;;4.30;76.90;;;;;;5051581;28;82460;-38
2022/12/13 04:51:38;;;;;;;;;;;4.30;76.90;;;;;;5049502;28;81205;-38
2022/12/13 04:54:04;;;;;;;;;;;4.30;77.00;;;;;;5049055;28;81822;-38
2022/12/13 04:56:29;;;;;;;;;;;4.30;76.90;;;;;;5048944;28;82458;-38
2022/12/13 04:58:55;;;;;;;;;;;4.30;76.90;;;;;;5047925;28;82987;-38
2022/12/13 05:01:20;;;;;;;;;;;4.30;76.90;;;;;;5048834;28;83368;-38
2022/12/13 05:03:46;;;;;;;;;;;4.30;76.90;;;;;;5048758;28;82967;-38
2022/12/13 05:06:12;;;;;;;;;;;4.30;76.90;;;;;;5048792;28;81863;-38
2022/12/13 05:08:38;;;;;;;;;;;4.30;76.90;;;;;;5048697;28;82466;-38
2022/12/13 05:11:04;;;;;;;;;;;4.20;76.80;;;;;;5051237;28;82203;-38
2022/12/13 05:13:30;;;;;;;;;;;4.20;76.80;;;;;;5048533;28;82017;-38
2022/12/13 05:15:56;;;;;;;;;;;4.20;76.80;;;;;;5048739;28;82266;-38
2022/12/13 05:18:22;;;;;;;;;;;4.20;76.80;;;;;;5048413;28;82078;-38
2022/12/13 05:20:49;;;;;;;;;;;4.20;76.80;;;;;;5048648;28;82305;-38
2022/12/13 05:23:15;;;;;;;;;;;4.20;76.80;;;;;;5047350;28;84084;-38
2022/12/13 05:25:41;;;;;;;;;;;4.20;76.70;;;;;;5048490;27;82429;-38
2022/12/13 05:28:06;;;;;;;;;;;4.20;76.80;;;;;;5048185;28;83336;-38
2022/12/13 05:30:32;;;;;;;;;;;4.20;76.80;;;;;;5048282;28;83026;-38
2022/12/13 05:32:58;;;;;;;;;;;4.20;76.80;;;;;;5050970;28;82518;-38
2022/12/13 05:35:23;;;;;;;;;;;4.10;76.80;;;;;;5048164;28;82917;-38
2022/12/13 05:37:49;;;;;;;;;;;4.10;76.80;;;;;;5048252;28;82092;-38
2022/12/13 05:40:15;;;;;;;;;;;4.10;76.80;;;;;;5048008;28;82383;-38
2022/12/13 05:42:40;;;;;;;;;;;4.10;76.80;;;;;;5047975;28;83007;-38
2022/12/13 05:45:06;;;;;;;;;;;4.10;76.80;;;;;;5048302;28;81977;-38
2022/12/13 05:47:32;;;;;;;;;;;4.10;76.80;;;;;;5047349;28;83906;-38
2022/12/13 05:49:57;;;;;;;;;;;4.10;76.80;;;;;;5047917;28;82907;-38
2022/12/13 05:52:23;;;;;;;;;;;4.10;76.80;;;;;;5050796;28;81862;-38
2022/12/13 05:54:53;;;;;;;;;;;4.10;76.80;;;;;;5047706;28;83164;-38
2022/12/13 05:57:18;;;;;;;;;;;4.10;76.80;;;;;;5047099;27;82155;-38
2022/12/13 05:59:44;;;;;;;;;;;4.10;76.80;;;;;;5048010;27;82407;-38
2022/12/13 06:02:09;;;;;;;;;;;4.00;76.70;;;;;;5047727;28;82312;-38
2022/12/13 06:04:35;;;;;;;;;;;4.00;76.70;;;;;;5048555;28;81361;-38
2022/12/13 06:07:00;;;;;;;;;;;4.00;76.70;;;;;;5047796;28;82042;-38
2022/12/13 06:09:26;;;;;;;;;;;4.00;76.70;;;;;;5047290;28;83183;-38
2022/12/13 06:11:52;;;;;;;;;;;4.00;76.70;;;;;;5047068;28;83096;-38
2022/12/13 06:14:17;;;;;;;;;;;4.00;76.70;;;;;;5049953;28;83889;-38
2022/12/13 06:16:43;;;;;;;;;;;4.00;76.70;;;;;;5047793;28;82224;-38
2022/12/13 06:19:09;;;;;;;;;;;4.00;76.70;;;;;;5047574;28;82284;-38
2022/12/13 06:21:35;;;;;;;;;;;4.00;76.70;;;;;;5047656;28;83282;-38
2022/12/13 06:24:00;;;;;;;;;;;4.00;76.70;;;;;;5047554;28;82135;-38
2022/12/13 06:26:25;;;;;;;;;;;4.00;76.70;;;;;;5047399;28;82127;-38
2022/12/13 06:28:51;;;;;;;;;;;3.90;76.60;;;;;;5047765;28;82282;-38
2022/12/13 06:31:17;;;;;;;;;;;4.00;76.70;;;;;;5047555;28;82052;-38
2022/12/13 06:33:42;;;;;;;;;;;4.00;76.70;;;;;;5047340;28;82286;-37
2022/12/13 06:36:09;;;;;;;;;;;3.90;76.70;;;;;;5049508;28;84014;-38
2022/12/13 06:38:34;;;;;;;;;;;3.90;76.60;;;;;;5047120;28;85141;-38
2022/12/13 06:41:13;;;;;;;;;;;3.90;76.60;;;;;;5046773;28;82152;-38
2022/12/13 06:43:45;;;;;;;;;;;3.90;76.70;;;;;;5046843;28;81982;-38
2022/12/13 06:46:11;;;;;;;;;;;3.90;76.60;;;;;;5047014;28;81973;-38
2022/12/13 06:48:39;;;;;;;;;;;3.90;76.60;;;;;;5046813;28;84310;-38
2022/12/13 06:51:05;;;;;;;;;;;3.90;76.70;;;;;;5047185;28;81834;-38
2022/12/13 06:53:31;;;;;;;;;;;3.90;76.70;;;;;;5047401;28;83858;-38
2022/12/13 06:56:01;;;;;;;;;;;3.80;76.70;;;;;;5046679;28;83000;-38
2022/12/13 06:58:26;;;;;;;;;;;3.90;76.60;;;;;;5049613;28;82004;-38
2022/12/13 07:00:59;;;;;;;;;;;3.90;76.60;;;;;;5046267;28;83727;-38
2022/12/13 07:03:25;;;;;;;;;;;3.90;76.70;;;;;;5047011;28;81956;-38
2022/12/13 07:05:50;;;;;;;;;;;3.90;76.60;;;;;;5047093;28;82590;-38
2022/12/13 07:08:16;;;;;;;;;;;3.80;76.60;;;;;;5046447;28;82023;-38
2022/12/13 07:10:41;;;;;;;;;;;3.90;76.60;;;;;;5045878;27;82076;-38
2022/12/13 07:13:07;;;;;;;;;;;3.80;76.60;;;;;;5028687;28;83748;-38
2022/12/13 07:15:32;;;;;;;;;;;3.80;76.60;;;;;;5046588;28;83123;-38
2022/12/13 07:17:58;;;;;;;;;;;3.80;76.60;;;;;;5047320;28;81320;-37
2022/12/13 07:20:23;;;;;;;;;;;3.80;76.60;;;;;;5049361;28;82040;-38
2022/12/13 07:22:55;;;;;;;;;;;3.80;76.60;;;;;;5046633;28;82078;-38
2022/12/13 07:25:21;;;;;;;;;;;3.80;76.60;;;;;;5045947;28;83580;-38
2022/12/13 07:27:46;;;;;;;;;;;3.80;76.60;;;;;;5046412;28;82125;-38
2022/12/13 07:30:12;;;;;;;;;;;3.80;76.60;;;;;;5046628;28;82114;-38
2022/12/13 07:32:37;;;;;;;;;;;3.80;76.60;;;;;;5046549;28;81785;-38
2022/12/13 07:35:03;;;;;;;;;;;3.80;76.60;;;;;;5046324;28;83156;-38
2022/12/13 07:37:28;;;;;;;;;;;3.80;76.60;;;;;;5046371;28;81991;-38
2022/12/13 07:39:54;;;;;;;;;;;3.70;76.50;;;;;;5045689;28;82367;-38
2022/12/13 07:42:19;;;;;;;;;;;3.80;76.60;;;;;;5049353;28;82345;-38
2022/12/13 07:44:45;;;;;;;;;;;3.70;76.60;;;;;;5046453;28;81887;-38
2022/12/13 07:47:10;;;;;;;;;;;3.80;76.60;;;;;;5045984;28;82953;-37
2022/12/13 07:49:37;;;;;;;;;;;3.80;76.60;;;;;;5045394;28;82898;-37
2022/12/13 07:52:02;;;;;;;;;;;3.80;76.60;;;;;;5046087;28;83373;-38
2022/12/13 07:54:28;;;;;;;;;;;3.70;76.50;;;;;;5046108;28;82045;-38
2022/12/13 07:56:53;;;;;;;;;;;3.70;76.50;;;;;;5046256;28;82007;-38
2022/12/13 07:59:19;;;;;;;;;;;3.80;76.60;;;;;;5046273;28;82344;-38
2022/12/13 08:01:44;;;;;;;;;;;3.70;76.50;;;;;;5048640;28;83078;-38
2022/12/13 08:04:10;;;;;;;;;;;3.70;76.50;;;;;;5046034;28;82636;-38
2022/12/13 08:06:36;;;;;;;;;;;3.70;76.60;;;;;;5046332;28;81272;-38
2022/12/13 08:09:02;;;;;;;;;;;3.70;76.60;;;;;;5045141;28;82169;-38
2022/12/13 08:11:28;;;;;;;;;;;3.70;76.50;;;;;;5046106;28;82140;-38
2022/12/13 08:13:53;;;;;;;;;;;3.70;76.60;;;;;;5045033;28;83452;-37
2022/12/13 08:16:19;;;;;;;;;;;3.70;76.70;;;;;;5045582;28;81985;-38
2022/12/13 08:18:46;;;;;;;;;;;3.70;76.50;;;;;;5045870;28;82277;-38
2022/12/13 08:21:12;;;;;;;;;;;3.70;76.50;;;;;;5047327;27;83041;-37
2022/12/13 08:23:38;;;;;;;;;;;3.70;76.50;;;;;;5052073;28;81956;-38
2022/12/13 08:26:04;;;;;;;;;;;3.70;76.50;;;;;;5049112;28;81999;-38
2022/12/13 08:28:30;;;;;;;;;;;3.70;77.20;;;;;;5049303;28;82090;-38
2022/12/13 08:31:01;;;;;;;;;;;3.70;76.50;;;;;;5049339;28;84038;-38
2022/12/13 08:33:26;;;;;;;;;;;3.70;76.50;;;;;;5049046;28;82202;-38
2022/12/13 08:35:52;;;;;;;;;;;3.70;76.60;;;;;;5049308;28;82116;-38
2022/12/13 08:38:17;;;;;;;;;;;3.60;76.60;;;;;;5048188;28;82983;-38
2022/12/13 08:40:43;;;;;;;;;;;3.60;76.60;;;;;;5048559;28;83021;-37
2022/12/13 08:43:08;;;;;;;;;;;3.60;76.50;;;;;;5049020;28;82145;-38
2022/12/13 08:45:34;;;;;;;;;;;3.60;76.60;;;;;;5051553;28;82836;-38
2022/12/13 08:48:00;;;;;;;;;;;3.70;76.60;;;;;;5048831;28;82054;-38
2022/12/13 08:50:26;;;;;;;;;;;3.60;76.50;;;;;;5048746;28;83085;-38
2022/12/13 08:52:52;;;;;;;;;;;3.60;76.60;;;;;;5044986;28;87871;-38
2022/12/13 08:55:17;;;;;;;;;;;3.70;76.60;;;;;;5045842;28;86289;-38
2022/12/13 08:57:43;;;;;;;;;;;3.60;76.60;;;;;;5045664;28;87036;-37
2022/12/13 09:00:18;;;;;;;;;;;3.60;76.60;;;;;;5044971;28;86984;-38
2022/12/13 09:02:44;;;;;;;;;;;3.60;76.70;;;;;;5045017;28;87941;-37
2022/12/13 09:05:11;;;;;;;;;;;3.60;76.50;;;;;;5045441;28;88204;-38
2022/12/13 09:07:40;;;;;;;;;;;3.60;76.50;;;;;;5047729;28;89350;-37
2022/12/13 09:10:06;;;;;;;;;;;3.60;76.60;;;;;;5045054;28;87391;-38
2022/12/13 09:12:31;;;;;;;;;;;3.60;76.60;;;;;;5045047;28;88226;-38
2022/12/13 09:14:57;;;;;;;;;;;3.60;76.50;;;;;;5045220;28;87253;-38
2022/12/13 09:17:22;;;;;;;;;;;3.60;76.50;;;;;;5045057;28;87361;-38
2022/12/13 09:19:48;;;;;;;;;;;3.60;76.50;;;;;;5045371;28;86630;-37
2022/12/13 09:22:13;;;;;;;;;;;3.60;76.50;;;;;;5044952;27;87135;-38
2022/12/13 09:24:39;;;;;;;;;;;3.60;76.50;;;;;;5044848;28;88951;-38
2022/12/13 09:27:04;;;;;;;;;;;3.60;76.50;;;;;;5044138;28;89198;-38
2022/12/13 09:29:31;;;;;;;;;;;3.60;76.50;;;;;;5047980;28;86973;-37
2022/12/13 09:31:56;;;;;;;;;;;3.60;76.50;;;;;;5043909;27;87273;-38
2022/12/13 09:34:22;;;;;;;;;;;3.60;76.50;;;;;;5044845;28;86856;-38
2022/12/13 09:36:47;;;;;;;;;;;3.60;76.30;;;;;;5044860;28;87374;-38
2022/12/13 09:39:13;;;;;;;;;;;3.60;76.50;;;;;;5044085;28;87250;-38
2022/12/13 09:41:41;;;;;;;;;;;3.60;77.10;;;;;;5044948;28;86960;-38
2022/12/13 09:44:13;;;;;;;;;;;3.60;76.50;;;;;;5045032;28;87472;-37
2022/12/13 09:46:42;;;;;;;;;;;3.60;76.50;;;;;;5044278;28;87974;-38
2022/12/13 09:49:34;;;;;;;;;;;3.60;76.60;;;;;;5044604;28;87246;-37
2022/12/13 09:52:00;;;;;;;;;;;3.50;76.80;;;;;;5041513;28;87961;-37
2022/12/13 09:54:26;;;;;;;;;;;3.50;76.70;;;;;;5044642;28;87096;-38
2022/12/13 09:56:53;;;;;;;;;;;3.60;76.50;;;;;;5044526;27;87771;-38
2022/12/13 09:59:22;;;;;;;;;;;3.60;76.50;;;;;;5044208;28;87897;-38
2022/12/13 10:01:48;;;;;;;;;;;3.60;76.70;;;;;;5044157;28;86855;-38
2022/12/13 10:04:14;;;;;;;;;;;3.50;76.60;;;;;;5044513;28;87371;-37
2022/12/13 10:06:40;;;;;;;;;;;3.50;76.60;;;;;;5043948;28;89650;-38
2022/12/13 10:09:08;;;;;;;;;;;3.50;76.70;;;;;;5044921;28;86352;-38
2022/12/13 10:11:34;;;;;;;;;;;3.50;76.60;;;;;;5046871;28;87053;-38
2022/12/13 10:14:05;;;;;;;;;;;3.50;76.80;;;;;;5043980;28;87024;-38
2022/12/13 10:16:37;;;;;;;;;;;3.50;76.70;;;;;;5043398;28;87982;-38
2022/12/13 10:19:14;;;;;;;;;;;3.50;76.80;;;;;;5043775;28;87825;-38
2022/12/13 10:21:41;;;;;;;;;;;3.50;76.70;;;;;;5044399;27;87079;-37
2022/12/13 10:24:29;;;;;;;;;;;3.50;76.80;;;;;;5043772;28;88928;-38
2022/12/13 10:27:08;;;;;;;;;;;3.50;76.80;;;;;;5043660;28;87865;-38
2022/12/13 10:29:54;;;;;;;;;;;3.40;77.00;;;;;;5043748;28;86836;-38
2022/12/13 10:32:20;;;;;;;;;;;3.40;77.00;;;;;;5043747;28;87222;-38
2022/12/13 10:34:45;;;;;;;;;;;3.40;77.00;;;;;;5047210;28;87332;-38
2022/12/13 10:37:28;;;;;;;;;;;3.50;76.90;;;;;;5043892;28;87084;-38
2022/12/13 10:39:53;;;;;;;;;;;3.50;76.90;;;;;;5042997;28;87169;-38
2022/12/13 10:42:20;;;;;;;;;;;3.40;76.90;;;;;;5043432;28;88075;-38
2022/12/13 10:44:45;;;;;;;;;;;3.40;76.90;;;;;;5043885;27;88473;-38
2022/12/13 10:47:14;;;;;;;;;;;3.50;76.90;;;;;;5042948;28;88048;-38
2022/12/13 10:49:46;;;;;;;;;;;3.50;76.90;;;;;;5043527;28;87174;-38
2022/12/13 10:52:38;;;;;;;;;;;3.60;76.80;;;;;;5043854;28;87013;-38
2022/12/13 10:55:05;;;;;;;;;;;3.50;76.60;;;;;;5038061;28;88207;-38
2022/12/13 10:57:31;;;;;;;;;;;3.50;76.90;;;;;;5046476;28;87121;-38
2022/12/13 10:59:57;;;;;;;;;;;3.50;76.90;;;;;;5025223;28;90462;-38
2022/12/13 11:02:34;;;;;;;;;;;3.50;76.80;;;;;;5043511;28;86981;-38
2022/12/13 11:05:20;;;;;;;;;;;3.50;76.90;;;;;;5043556;28;87340;-38
2022/12/13 11:07:46;;;;;;;;;;;3.50;76.90;;;;;;5041721;28;89076;-38
2022/12/13 11:10:22;;;;;;;;;;;3.50;76.80;;;;;;5043482;28;87097;-38
2022/12/13 11:12:48;;;;;;;;;;;3.50;77.00;;;;;;5043193;28;87380;-38
2022/12/13 11:15:18;;;;;;;;;;;3.50;76.90;;;;;;5042803;28;88361;-38
2022/12/13 11:17:55;;;;;;;;;;;3.50;76.90;;;;;;5043057;28;87136;-38
2022/12/13 11:20:23;;;;;;;;;;;3.50;76.90;;;;;;5046135;28;87068;-38
2022/12/13 11:22:57;;;;;;;;;;;3.50;76.70;;;;;;5043181;27;87107;-38
2022/12/13 11:25:29;;;;;;;;;;;3.50;76.80;;;;;;5043739;28;87386;-38
2022/12/13 11:28:10;;;;;;;;;;;3.50;76.80;;;;;;5042601;28;90012;-38
2022/12/13 11:30:54;;;;;;;;;;;3.40;77.00;;;;;;5043190;28;87160;-37
2022/12/13 11:33:29;;;;;;;;;;;3.40;77.00;;;;;;5042254;28;89054;-38
2022/12/13 11:35:55;;;;;;;;;;;3.40;77.10;;;;;;5042487;28;88088;-38
2022/12/13 11:38:43;;;;;;;;;;;3.40;77.10;;;;;;5043025;28;87109;-38
2022/12/13 11:41:31;;;;;;;;;;;3.40;76.90;;;;;;4995134;28;87251;-38
2022/12/13 11:43:59;;;;;;;;;;;3.40;77.20;;;;;;5045305;28;89669;-38
2022/12/13 11:46:39;;;;;;;;;;;3.50;77.20;;;;;;5042662;28;86943;-38
2022/12/13 11:49:10;;;;;;;;;;;3.40;76.90;;;;;;5042205;28;88211;-38
2022/12/13 11:51:41;;;;;;;;;;;3.40;77.10;;;;;;5043488;28;86322;-38
2022/12/13 11:54:14;;;;;;;;;;;3.50;77.10;;;;;;5042986;28;86983;-38
2022/12/13 11:56:41;;;;;;;;;;;3.40;77.00;;;;;;5041799;28;88222;-38
2022/12/13 11:59:14;;;;;;;;;;;3.40;77.20;;;;;;5041784;28;88015;-38
2022/12/13 12:01:52;;;;;;;;;;;3.50;77.10;;;;;;5042574;28;89527;-38
2022/12/13 12:04:17;;;;;;;;;;;3.40;77.00;;;;;;5042226;28;87901;-38
2022/12/13 12:07:03;;;;;;;;;;;3.40;77.20;;;;;;5045543;28;86991;-38
2022/12/13 12:09:29;;;;;;;;;;;3.40;77.30;;;;;;5023694;28;87932;-38
2022/12/13 12:12:00;;;;;;;;;;;3.40;77.30;;;;;;5042720;28;87100;-38
2022/12/13 12:14:38;;;;;;;;;;;3.30;77.20;;;;;;5042286;28;88043;-39
2022/12/13 12:17:05;;;;;;;;;;;3.40;77.30;;;;;;5042389;28;88706;-38
2022/12/13 12:19:39;;;;;;;;;;;3.40;77.30;;;;;;5042116;28;86983;-38
2022/12/13 12:22:23;;;;;;;;;;;3.30;77.50;;;;;;5042249;28;88780;-38
2022/12/13 12:24:54;;;;;;;;;;;3.40;77.30;;;;;;5041515;28;88180;-38
2022/12/13 12:27:22;;;;;;;;;;;3.40;77.30;;;;;;5045220;28;87162;-38
2022/12/13 12:29:48;;;;;;;;;;;3.40;77.40;;;;;;5041927;28;88404;-38
2022/12/13 12:32:22;;;;;;;;;;;3.40;77.20;;;;;;5042106;28;87079;-38
2022/12/13 12:34:54;;;;;;;;;;;3.40;77.30;;;;;;5042322;28;87356;-38
2022/12/13 12:37:22;;;;;;;;;;;3.30;77.20;;;;;;5042202;28;88028;-38
2022/12/13 12:40:10;;;;;;;;;;;3.30;77.70;;;;;;5041913;28;87126;-38
2022/12/13 12:42:46;;;;;;;;;;;3.30;77.40;;;;;;5042805;28;87968;-39
2022/12/13 12:45:22;;;;;;;;;;;3.30;77.60;;;;;;5041648;28;89438;-38
2022/12/13 12:47:57;;;;;;;;;;;3.30;77.40;;;;;;5042363;28;86886;-38
2022/12/13 12:50:40;;;;;;;;;;;3.40;77.40;;;;;;5044105;28;87919;-38
2022/12/13 12:53:13;;;;;;;;;;;3.30;77.20;;;;;;5041880;28;87100;-38
2022/12/13 12:55:39;;;;;;;;;;;3.30;77.60;;;;;;5042220;28;87408;-38
2022/12/13 12:58:04;;;;;;;;;;;3.30;77.40;;;;;;5041624;28;87858;-38
2022/12/13 13:00:39;;;;;;;;;;;3.30;77.40;;;;;;5042328;28;87232;-38
2022/12/13 13:03:31;;;;;;;;;;;3.30;77.40;;;;;;5042082;28;87287;-38
2022/12/13 13:05:56;;;;;;;;;;;3.30;77.70;;;;;;5036465;28;87248;-38
2022/12/13 13:08:22;;;;;;;;;;;3.30;77.50;;;;;;5044215;27;86453;-38
2022/12/13 13:10:48;;;;;;;;;;;3.30;77.50;;;;;;5045434;28;86834;-38
2022/12/13 13:13:32;;;;;;;;;;;3.20;77.50;;;;;;5047830;28;87465;-38
2022/12/13 13:15:58;;;;;;;;;;;3.20;77.70;;;;;;5044899;28;87848;-38
2022/12/13 13:18:44;;;;;;;;;;;3.20;77.60;;;;;;5044779;28;88135;-38
2022/12/13 13:21:22;;;;;;;;;;;3.20;77.60;;;;;;5045139;28;86964;-38
2022/12/13 13:23:56;;;;;;;;;;;3.20;78.00;;;;;;5045309;28;86878;-38
2022/12/13 13:26:28;;;;;;;;;;;3.20;77.50;;;;;;5044900;28;88121;-38
2022/12/13 13:28:53;;;;;;;;;;;3.20;77.50;;;;;;5044887;28;87113;-38
2022/12/13 13:31:19;;;;;;;;;;;3.20;77.70;;;;;;5045128;28;87373;-38
2022/12/13 13:33:48;;;;;;;;;;;3.20;77.60;;;;;;5045145;28;87256;-38
2022/12/13 13:36:46;;;;;;;;;;;3.20;78.00;;;;;;5047992;27;87027;-40
2022/12/13 13:39:15;;;;;;;;;;;3.20;77.70;;;;;;4987718;28;89683;-38
2022/12/13 13:41:59;;;;;;;;;;;3.20;77.90;;;;;;5044264;27;87856;-37
2022/12/13 13:44:33;;;;;;;;;;;3.20;77.60;;;;;;5044913;28;87314;-38
2022/12/13 13:47:08;;;;;;;;;;;3.20;77.70;;;;;;5044008;28;89255;-38
2022/12/13 13:49:34;;;;;;;;;;;3.20;77.80;;;;;;5044713;28;87059;-38
2022/12/13 13:52:11;;;;;;;;;;;3.10;77.60;;;;;;5044799;27;87417;-38
2022/12/13 13:54:43;;;;;;;;;;;3.20;78.00;;;;;;5044425;28;87141;-38
2022/12/13 13:57:27;;;;;;;;;;;3.20;77.90;;;;;;5044369;28;86955;-38
2022/12/13 14:00:05;;;;;;;;;;;3.20;77.80;;;;;;5047692;28;87315;-38
2022/12/13 14:02:49;;;;;;;;;;;3.20;77.80;;;;;;5044238;28;87401;-38
2022/12/13 14:05:30;;;;;;;;;;;3.20;77.80;;;;;;5044199;28;88776;-38
2022/12/13 14:08:07;;;;;;;;;;;3.20;78.40;;;;;;5043281;28;89080;-38
2022/12/13 14:10:52;;;;;;;;;;;3.20;77.90;;;;;;5044218;28;87103;-38
2022/12/13 14:13:36;;;;;;;;;;;3.10;77.80;;;;;;5044474;28;87832;-38
2022/12/13 14:16:08;;;;;;;;;;;3.20;77.80;;;;;;5043917;28;88042;-38
2022/12/13 14:18:43;;;;;;;;;;;3.10;77.90;;;;;;5044021;27;86915;-38
2022/12/13 14:21:26;;;;;;;;;;;3.10;77.80;;;;;;5046699;27;87349;-38
2022/12/13 14:24:01;;;;;;;;;;;3.10;78.00;;;;;;5044270;28;86986;-38
2022/12/13 14:26:33;;;;;;;;;;;3.10;78.10;;;;;;5044562;28;87238;-38
2022/12/13 14:28:59;;;;;;;;;;;3.10;78.00;;;;;;5043776;28;88242;-39
2022/12/13 14:31:31;;;;;;;;;;;3.10;78.00;;;;;;5043829;28;87118;-38
2022/12/13 14:33:58;;;;;;;;;;;3.10;77.90;;;;;;5043573;28;87950;-38
2022/12/13 14:36:33;;;;;;;;;;;3.10;78.00;;;;;;5043562;27;87880;-38
2022/12/13 14:39:04;;;;;;;;;;;3.10;78.10;;;;;;5043789;28;86939;-38
2022/12/13 14:41:30;;;;;;;;;;;3.10;78.00;;;;;;5043703;28;87462;-38
2022/12/13 14:44:12;;;;;;;;;;;3.10;78.00;;;;;;5046082;28;89332;-38
2022/12/13 14:46:46;;;;;;;;;;;3.10;78.20;;;;;;5043963;28;87362;-38